sensor_id;sensor_type;location;lat;lon;timestamp;P1;durP1;ratioP1;P2;durP2;ratioP2
2896;SDS011;1458;49.728;9.228;2023-03-04T00:00:07;1.10;;;1.10;;
2896;SDS011;1458;49.728;9.228;2023-03-04T00:02:36;0.90;;;0.90;;
2896;SDS011;1458;49.728;9.228;2023-03-04T00:05:04;1.00;;;1.00;;
2896;SDS011;1458;49.728;9.228;2023-03-04T00:07:32;1.00;;;1.00;;
2896;SDS011;1458;49.728;9.228;2023-03-04T00:10:00;1.00;;;1.00;;
2896;SDS011;1458;49.728;9.228;2023-03-04T00:12:27;1.00;;;1.00;;
2896;SDS011;1458;49.728;9.228;2023-03-04T00:14:57;0.90;;;0.90;;
2896;SDS011;1458;49.728;9.228;2023-03-04T00:17:24;0.90;;;0.90;;
2896;SDS011;1458;49.728;9.228;2023-03-04T00:19:54;0.90;;;0.90;;
2896;SDS011;1458;49.728;9.228;2023-03-04T00:22:21;1.00;;;1.00;;
2896;SDS011;1458;49.728;9.228;2023-03-04T00:24:49;0.87;;;0.87;;
2896;SDS011;1458;49.728;9.228;2023-03-04T00:27:16;0.80;;;0.80;;
2896;SDS011;1458;49.728;9.228;2023-03-04T00:29:44;0.90;;;0.90;;
2896;SDS011;1458;49.728;9.228;2023-03-04T00:32:12;0.90;;;0.90;;
2896;SDS011;1458;49.728;9.228;2023-03-04T00:34:42;0.80;;;0.80;;
2896;SDS011;1458;49.728;9.228;2023-03-04T00:37:09;0.80;;;0.80;;
2896;SDS011;1458;49.728;9.228;2023-03-04T00:39:37;0.80;;;0.80;;
2896;SDS011;1458;49.728;9.228;2023-03-04T00:42:04;0.90;;;0.90;;
2896;SDS011;1458;49.728;9.228;2023-03-04T00:44:32;0.90;;;0.90;;
2896;SDS011;1458;49.728;9.228;2023-03-04T00:46:59;0.90;;;0.90;;
2896;SDS011;1458;49.728;9.228;2023-03-04T00:49:28;0.93;;;0.93;;
2896;SDS011;1458;49.728;9.228;2023-03-04T00:51:55;0.90;;;0.90;;
2896;SDS011;1458;49.728;9.228;2023-03-04T00:54:22;0.90;;;0.90;;
2896;SDS011;1458;49.728;9.228;2023-03-04T00:56:50;0.90;;;0.90;;
2896;SDS011;1458;49.728;9.228;2023-03-04T00:59:17;0.90;;;0.90;;
2896;SDS011;1458;49.728;9.228;2023-03-04T01:01:44;0.90;;;0.90;;
2896;SDS011;1458;49.728;9.228;2023-03-04T01:04:12;0.90;;;0.90;;
2896;SDS011;1458;49.728;9.228;2023-03-04T01:06:40;0.90;;;0.90;;
2896;SDS011;1458;49.728;9.228;2023-03-04T01:09:08;0.90;;;0.90;;
2896;SDS011;1458;49.728;9.228;2023-03-04T01:11:35;0.90;;;0.90;;
2896;SDS011;1458;49.728;9.228;2023-03-04T01:14:03;0.90;;;0.90;;
2896;SDS011;1458;49.728;9.228;2023-03-04T01:16:31;0.80;;;0.80;;
2896;SDS011;1458;49.728;9.228;2023-03-04T01:18:58;0.83;;;0.83;;
2896;SDS011;1458;49.728;9.228;2023-03-04T01:21:25;0.90;;;0.90;;
2896;SDS011;1458;49.728;9.228;2023-03-04T01:23:55;0.90;;;0.90;;
2896;SDS011;1458;49.728;9.228;2023-03-04T01:26:23;0.90;;;0.90;;
2896;SDS011;1458;49.728;9.228;2023-03-04T01:28:50;0.90;;;0.90;;
2896;SDS011;1458;49.728;9.228;2023-03-04T01:31:17;0.90;;;0.90;;
2896;SDS011;1458;49.728;9.228;2023-03-04T01:33:45;0.90;;;0.90;;
2896;SDS011;1458;49.728;9.228;2023-03-04T01:36:12;0.90;;;0.90;;
2896;SDS011;1458;49.728;9.228;2023-03-04T01:38:39;0.80;;;0.80;;
2896;SDS011;1458;49.728;9.228;2023-03-04T01:41:08;0.90;;;0.90;;
2896;SDS011;1458;49.728;9.228;2023-03-04T01:43:37;0.90;;;0.90;;
2896;SDS011;1458;49.728;9.228;2023-03-04T01:46:04;0.90;;;0.90;;
2896;SDS011;1458;49.728;9.228;2023-03-04T01:48:33;0.90;;;0.90;;
2896;SDS011;1458;49.728;9.228;2023-03-04T01:51:03;0.80;;;0.80;;
2896;SDS011;1458;49.728;9.228;2023-03-04T01:53:36;0.90;;;0.90;;
2896;SDS011;1458;49.728;9.228;2023-03-04T01:56:10;0.90;;;0.90;;
2896;SDS011;1458;49.728;9.228;2023-03-04T01:58:42;0.90;;;0.90;;
2896;SDS011;1458;49.728;9.228;2023-03-04T02:01:09;1.00;;;1.00;;
2896;SDS011;1458;49.728;9.228;2023-03-04T02:03:37;1.00;;;1.00;;
2896;SDS011;1458;49.728;9.228;2023-03-04T02:06:05;0.90;;;0.90;;
2896;SDS011;1458;49.728;9.228;2023-03-04T02:08:32;0.90;;;0.90;;
2896;SDS011;1458;49.728;9.228;2023-03-04T02:11:00;0.83;;;0.83;;
2896;SDS011;1458;49.728;9.228;2023-03-04T02:13:29;0.80;;;0.80;;
2896;SDS011;1458;49.728;9.228;2023-03-04T02:15:58;0.83;;;0.83;;
2896;SDS011;1458;49.728;9.228;2023-03-04T02:18:26;0.90;;;0.90;;
2896;SDS011;1458;49.728;9.228;2023-03-04T02:20:55;0.90;;;0.90;;
2896;SDS011;1458;49.728;9.228;2023-03-04T02:23:34;1.00;;;1.00;;
2896;SDS011;1458;49.728;9.228;2023-03-04T02:26:15;0.90;;;0.90;;
2896;SDS011;1458;49.728;9.228;2023-03-04T02:28:47;0.90;;;0.90;;
2896;SDS011;1458;49.728;9.228;2023-03-04T02:31:24;0.90;;;0.90;;
2896;SDS011;1458;49.728;9.228;2023-03-04T02:33:56;0.90;;;0.90;;
2896;SDS011;1458;49.728;9.228;2023-03-04T02:36:26;0.90;;;0.90;;
2896;SDS011;1458;49.728;9.228;2023-03-04T02:38:54;0.90;;;0.90;;
2896;SDS011;1458;49.728;9.228;2023-03-04T02:41:30;0.93;;;0.93;;
2896;SDS011;1458;49.728;9.228;2023-03-04T02:43:58;0.90;;;0.90;;
2896;SDS011;1458;49.728;9.228;2023-03-04T02:46:26;1.03;;;1.03;;
2896;SDS011;1458;49.728;9.228;2023-03-04T02:48:53;1.00;;;1.00;;
2896;SDS011;1458;49.728;9.228;2023-03-04T02:51:21;1.00;;;1.00;;
2896;SDS011;1458;49.728;9.228;2023-03-04T02:53:48;0.90;;;0.90;;
2896;SDS011;1458;49.728;9.228;2023-03-04T02:56:16;0.90;;;0.90;;
2896;SDS011;1458;49.728;9.228;2023-03-04T02:58:44;0.90;;;0.90;;
2896;SDS011;1458;49.728;9.228;2023-03-04T03:01:12;0.90;;;0.90;;
2896;SDS011;1458;49.728;9.228;2023-03-04T03:03:40;0.90;;;0.90;;
2896;SDS011;1458;49.728;9.228;2023-03-04T03:06:09;0.90;;;0.90;;
2896;SDS011;1458;49.728;9.228;2023-03-04T03:08:36;0.70;;;0.70;;
2896;SDS011;1458;49.728;9.228;2023-03-04T03:11:04;1.03;;;1.03;;
2896;SDS011;1458;49.728;9.228;2023-03-04T03:13:32;0.70;;;0.70;;
2896;SDS011;1458;49.728;9.228;2023-03-04T03:16:01;0.80;;;0.80;;
2896;SDS011;1458;49.728;9.228;2023-03-04T03:18:29;0.80;;;0.80;;
2896;SDS011;1458;49.728;9.228;2023-03-04T03:20:56;0.80;;;0.80;;
2896;SDS011;1458;49.728;9.228;2023-03-04T03:23:23;0.70;;;0.70;;
2896;SDS011;1458;49.728;9.228;2023-03-04T03:25:51;0.70;;;0.70;;
2896;SDS011;1458;49.728;9.228;2023-03-04T03:28:18;0.80;;;0.80;;
2896;SDS011;1458;49.728;9.228;2023-03-04T03:30:45;0.77;;;0.77;;
2896;SDS011;1458;49.728;9.228;2023-03-04T03:33:14;0.80;;;0.80;;
2896;SDS011;1458;49.728;9.228;2023-03-04T03:35:41;0.80;;;0.80;;
2896;SDS011;1458;49.728;9.228;2023-03-04T03:38:10;0.80;;;0.80;;
2896;SDS011;1458;49.728;9.228;2023-03-04T03:40:37;0.83;;;0.83;;
2896;SDS011;1458;49.728;9.228;2023-03-04T03:43:05;0.80;;;0.80;;
2896;SDS011;1458;49.728;9.228;2023-03-04T03:45:32;0.80;;;0.80;;
2896;SDS011;1458;49.728;9.228;2023-03-04T03:47:59;0.80;;;0.80;;
2896;SDS011;1458;49.728;9.228;2023-03-04T03:50:28;0.90;;;0.90;;
2896;SDS011;1458;49.728;9.228;2023-03-04T03:52:56;0.80;;;0.80;;
2896;SDS011;1458;49.728;9.228;2023-03-04T03:55:23;0.90;;;0.90;;
2896;SDS011;1458;49.728;9.228;2023-03-04T03:57:50;1.00;;;1.00;;
2896;SDS011;1458;49.728;9.228;2023-03-04T04:00:18;0.80;;;0.80;;
2896;SDS011;1458;49.728;9.228;2023-03-04T04:02:46;0.80;;;0.80;;
2896;SDS011;1458;49.728;9.228;2023-03-04T04:05:13;0.80;;;0.80;;
2896;SDS011;1458;49.728;9.228;2023-03-04T04:07:42;1.00;;;1.00;;
2896;SDS011;1458;49.728;9.228;2023-03-04T04:10:10;0.80;;;0.80;;
2896;SDS011;1458;49.728;9.228;2023-03-04T04:12:37;0.80;;;0.80;;
2896;SDS011;1458;49.728;9.228;2023-03-04T04:15:05;0.80;;;0.80;;
2896;SDS011;1458;49.728;9.228;2023-03-04T04:17:36;0.90;;;0.90;;
2896;SDS011;1458;49.728;9.228;2023-03-04T04:20:04;0.90;;;0.90;;
2896;SDS011;1458;49.728;9.228;2023-03-04T04:22:34;0.90;;;0.90;;
2896;SDS011;1458;49.728;9.228;2023-03-04T04:25:02;0.90;;;0.90;;
2896;SDS011;1458;49.728;9.228;2023-03-04T04:27:33;0.90;;;0.90;;
2896;SDS011;1458;49.728;9.228;2023-03-04T04:30:00;0.90;;;0.90;;
2896;SDS011;1458;49.728;9.228;2023-03-04T04:32:27;0.90;;;0.90;;
2896;SDS011;1458;49.728;9.228;2023-03-04T04:34:55;0.90;;;0.90;;
2896;SDS011;1458;49.728;9.228;2023-03-04T04:37:22;0.90;;;0.90;;
2896;SDS011;1458;49.728;9.228;2023-03-04T04:39:49;0.90;;;0.90;;
2896;SDS011;1458;49.728;9.228;2023-03-04T04:42:21;1.07;;;1.07;;
2896;SDS011;1458;49.728;9.228;2023-03-04T04:44:48;1.00;;;1.00;;
2896;SDS011;1458;49.728;9.228;2023-03-04T04:47:16;1.00;;;1.00;;
2896;SDS011;1458;49.728;9.228;2023-03-04T04:49:44;1.00;;;1.00;;
2896;SDS011;1458;49.728;9.228;2023-03-04T04:52:11;0.90;;;0.90;;
2896;SDS011;1458;49.728;9.228;2023-03-04T04:54:38;1.00;;;1.00;;
2896;SDS011;1458;49.728;9.228;2023-03-04T04:57:06;1.00;;;1.00;;
2896;SDS011;1458;49.728;9.228;2023-03-04T04:59:34;1.00;;;1.00;;
2896;SDS011;1458;49.728;9.228;2023-03-04T05:02:02;1.07;;;1.07;;
2896;SDS011;1458;49.728;9.228;2023-03-04T05:04:29;1.00;;;1.00;;
2896;SDS011;1458;49.728;9.228;2023-03-04T05:06:56;1.00;;;1.00;;
2896;SDS011;1458;49.728;9.228;2023-03-04T05:09:24;1.00;;;1.00;;
2896;SDS011;1458;49.728;9.228;2023-03-04T05:11:51;1.00;;;1.00;;
2896;SDS011;1458;49.728;9.228;2023-03-04T05:14:19;1.00;;;1.00;;
2896;SDS011;1458;49.728;9.228;2023-03-04T05:16:48;1.00;;;1.00;;
2896;SDS011;1458;49.728;9.228;2023-03-04T05:19:17;1.00;;;1.00;;
2896;SDS011;1458;49.728;9.228;2023-03-04T05:21:44;1.00;;;1.00;;
2896;SDS011;1458;49.728;9.228;2023-03-04T05:24:11;1.00;;;1.00;;
2896;SDS011;1458;49.728;9.228;2023-03-04T05:26:39;1.10;;;1.10;;
2896;SDS011;1458;49.728;9.228;2023-03-04T05:29:07;1.00;;;1.00;;
2896;SDS011;1458;49.728;9.228;2023-03-04T05:31:35;1.00;;;1.00;;
2896;SDS011;1458;49.728;9.228;2023-03-04T05:34:03;1.00;;;1.00;;
2896;SDS011;1458;49.728;9.228;2023-03-04T05:36:31;0.90;;;0.90;;
2896;SDS011;1458;49.728;9.228;2023-03-04T05:38:58;1.00;;;1.00;;
2896;SDS011;1458;49.728;9.228;2023-03-04T05:41:25;0.90;;;0.90;;
2896;SDS011;1458;49.728;9.228;2023-03-04T05:43:53;1.00;;;1.00;;
2896;SDS011;1458;49.728;9.228;2023-03-04T05:46:20;1.00;;;1.00;;
2896;SDS011;1458;49.728;9.228;2023-03-04T05:48:49;0.90;;;0.90;;
2896;SDS011;1458;49.728;9.228;2023-03-04T05:51:19;0.90;;;0.90;;
2896;SDS011;1458;49.728;9.228;2023-03-04T05:53:46;0.90;;;0.90;;
2896;SDS011;1458;49.728;9.228;2023-03-04T05:56:14;1.00;;;1.00;;
2896;SDS011;1458;49.728;9.228;2023-03-04T05:58:44;1.10;;;1.10;;
2896;SDS011;1458;49.728;9.228;2023-03-04T06:01:15;1.10;;;1.10;;
2896;SDS011;1458;49.728;9.228;2023-03-04T06:03:43;1.00;;;1.00;;
2896;SDS011;1458;49.728;9.228;2023-03-04T06:06:12;0.93;;;0.93;;
2896;SDS011;1458;49.728;9.228;2023-03-04T06:08:41;0.90;;;0.90;;
2896;SDS011;1458;49.728;9.228;2023-03-04T06:11:08;0.90;;;0.90;;
2896;SDS011;1458;49.728;9.228;2023-03-04T06:13:36;1.00;;;1.00;;
2896;SDS011;1458;49.728;9.228;2023-03-04T06:16:04;0.90;;;0.90;;
2896;SDS011;1458;49.728;9.228;2023-03-04T06:18:32;0.90;;;0.90;;
2896;SDS011;1458;49.728;9.228;2023-03-04T06:21:00;0.90;;;0.90;;
2896;SDS011;1458;49.728;9.228;2023-03-04T06:23:28;1.00;;;1.00;;
2896;SDS011;1458;49.728;9.228;2023-03-04T06:25:58;0.90;;;0.90;;
2896;SDS011;1458;49.728;9.228;2023-03-04T06:28:26;0.90;;;0.90;;
2896;SDS011;1458;49.728;9.228;2023-03-04T06:30:54;0.90;;;0.90;;
2896;SDS011;1458;49.728;9.228;2023-03-04T06:33:22;0.90;;;0.90;;
2896;SDS011;1458;49.728;9.228;2023-03-04T06:35:52;0.90;;;0.90;;
2896;SDS011;1458;49.728;9.228;2023-03-04T06:38:20;0.90;;;0.90;;
2896;SDS011;1458;49.728;9.228;2023-03-04T06:40:48;0.97;;;0.97;;
2896;SDS011;1458;49.728;9.228;2023-03-04T06:43:16;0.80;;;0.80;;
2896;SDS011;1458;49.728;9.228;2023-03-04T06:45:44;0.90;;;0.90;;
2896;SDS011;1458;49.728;9.228;2023-03-04T06:48:12;0.80;;;0.80;;
2896;SDS011;1458;49.728;9.228;2023-03-04T06:50:39;0.90;;;0.90;;
2896;SDS011;1458;49.728;9.228;2023-03-04T06:53:07;1.07;;;1.07;;
2896;SDS011;1458;49.728;9.228;2023-03-04T06:55:34;0.90;;;0.90;;
2896;SDS011;1458;49.728;9.228;2023-03-04T06:58:01;0.83;;;0.83;;
2896;SDS011;1458;49.728;9.228;2023-03-04T07:00:30;0.90;;;0.90;;
2896;SDS011;1458;49.728;9.228;2023-03-04T07:02:57;0.80;;;0.80;;
2896;SDS011;1458;49.728;9.228;2023-03-04T07:05:25;0.90;;;0.90;;
2896;SDS011;1458;49.728;9.228;2023-03-04T07:07:53;1.00;;;1.00;;
2896;SDS011;1458;49.728;9.228;2023-03-04T07:10:20;0.90;;;0.90;;
2896;SDS011;1458;49.728;9.228;2023-03-04T07:12:47;0.80;;;0.80;;
2896;SDS011;1458;49.728;9.228;2023-03-04T07:15:15;0.90;;;0.90;;
2896;SDS011;1458;49.728;9.228;2023-03-04T07:17:43;0.80;;;0.80;;
2896;SDS011;1458;49.728;9.228;2023-03-04T07:20:11;0.80;;;0.80;;
2896;SDS011;1458;49.728;9.228;2023-03-04T07:22:38;0.90;;;0.90;;
2896;SDS011;1458;49.728;9.228;2023-03-04T07:25:06;0.80;;;0.80;;
2896;SDS011;1458;49.728;9.228;2023-03-04T07:27:34;0.90;;;0.90;;
2896;SDS011;1458;49.728;9.228;2023-03-04T07:30:03;1.00;;;1.00;;
2896;SDS011;1458;49.728;9.228;2023-03-04T07:32:31;0.80;;;0.80;;
2896;SDS011;1458;49.728;9.228;2023-03-04T07:35:01;0.87;;;0.87;;
2896;SDS011;1458;49.728;9.228;2023-03-04T07:37:28;0.90;;;0.90;;
2896;SDS011;1458;49.728;9.228;2023-03-04T07:39:56;0.90;;;0.90;;
2896;SDS011;1458;49.728;9.228;2023-03-04T07:42:23;0.90;;;0.90;;
2896;SDS011;1458;49.728;9.228;2023-03-04T07:44:57;0.80;;;0.80;;
2896;SDS011;1458;49.728;9.228;2023-03-04T07:47:26;1.00;;;1.00;;
2896;SDS011;1458;49.728;9.228;2023-03-04T07:49:53;1.00;;;1.00;;
2896;SDS011;1458;49.728;9.228;2023-03-04T07:52:22;0.90;;;0.90;;
2896;SDS011;1458;49.728;9.228;2023-03-04T07:54:50;0.90;;;0.90;;
2896;SDS011;1458;49.728;9.228;2023-03-04T07:57:17;0.90;;;0.90;;
2896;SDS011;1458;49.728;9.228;2023-03-04T07:59:44;0.80;;;0.80;;
2896;SDS011;1458;49.728;9.228;2023-03-04T08:02:12;0.90;;;0.90;;
2896;SDS011;1458;49.728;9.228;2023-03-04T08:04:39;0.90;;;0.90;;
2896;SDS011;1458;49.728;9.228;2023-03-04T08:07:07;0.90;;;0.90;;
2896;SDS011;1458;49.728;9.228;2023-03-04T08:09:35;0.80;;;0.80;;
2896;SDS011;1458;49.728;9.228;2023-03-04T08:12:03;1.10;;;1.10;;
2896;SDS011;1458;49.728;9.228;2023-03-04T08:14:30;0.90;;;0.90;;
2896;SDS011;1458;49.728;9.228;2023-03-04T08:16:58;0.90;;;0.90;;
2896;SDS011;1458;49.728;9.228;2023-03-04T08:19:26;1.00;;;1.00;;
2896;SDS011;1458;49.728;9.228;2023-03-04T08:21:53;0.90;;;0.90;;
2896;SDS011;1458;49.728;9.228;2023-03-04T08:24:20;1.00;;;1.00;;
2896;SDS011;1458;49.728;9.228;2023-03-04T08:26:49;1.00;;;1.00;;
2896;SDS011;1458;49.728;9.228;2023-03-04T08:29:17;1.00;;;1.00;;
2896;SDS011;1458;49.728;9.228;2023-03-04T08:31:47;1.17;;;1.17;;
2896;SDS011;1458;49.728;9.228;2023-03-04T08:34:15;1.00;;;1.00;;
2896;SDS011;1458;49.728;9.228;2023-03-04T08:36:44;1.00;;;1.00;;
2896;SDS011;1458;49.728;9.228;2023-03-04T08:39:12;1.00;;;1.00;;
2896;SDS011;1458;49.728;9.228;2023-03-04T08:41:42;1.20;;;1.20;;
2896;SDS011;1458;49.728;9.228;2023-03-04T08:44:12;1.13;;;1.13;;
2896;SDS011;1458;49.728;9.228;2023-03-04T08:46:40;1.17;;;1.17;;
2896;SDS011;1458;49.728;9.228;2023-03-04T08:49:09;1.10;;;1.10;;
2896;SDS011;1458;49.728;9.228;2023-03-04T08:51:38;1.30;;;1.30;;
2896;SDS011;1458;49.728;9.228;2023-03-04T08:54:05;1.20;;;1.20;;
2896;SDS011;1458;49.728;9.228;2023-03-04T08:56:33;1.20;;;1.20;;
2896;SDS011;1458;49.728;9.228;2023-03-04T08:59:00;1.30;;;1.30;;
2896;SDS011;1458;49.728;9.228;2023-03-04T09:01:29;1.20;;;1.20;;
2896;SDS011;1458;49.728;9.228;2023-03-04T09:03:56;1.33;;;1.33;;
2896;SDS011;1458;49.728;9.228;2023-03-04T09:06:23;1.30;;;1.30;;
2896;SDS011;1458;49.728;9.228;2023-03-04T09:08:51;1.30;;;1.30;;
2896;SDS011;1458;49.728;9.228;2023-03-04T09:11:18;1.10;;;1.10;;
2896;SDS011;1458;49.728;9.228;2023-03-04T09:13:46;1.30;;;1.30;;
2896;SDS011;1458;49.728;9.228;2023-03-04T09:16:15;1.27;;;1.27;;
2896;SDS011;1458;49.728;9.228;2023-03-04T09:18:44;1.27;;;1.27;;
2896;SDS011;1458;49.728;9.228;2023-03-04T09:21:11;1.30;;;1.30;;
2896;SDS011;1458;49.728;9.228;2023-03-04T09:23:40;1.10;;;1.10;;
2896;SDS011;1458;49.728;9.228;2023-03-04T09:26:18;1.10;;;1.10;;
2896;SDS011;1458;49.728;9.228;2023-03-04T09:28:49;1.20;;;1.20;;
2896;SDS011;1458;49.728;9.228;2023-03-04T09:31:17;1.20;;;1.20;;
2896;SDS011;1458;49.728;9.228;2023-03-04T09:33:47;1.40;;;1.40;;
2896;SDS011;1458;49.728;9.228;2023-03-04T09:36:14;1.30;;;1.30;;
2896;SDS011;1458;49.728;9.228;2023-03-04T09:38:42;1.50;;;1.50;;
2896;SDS011;1458;49.728;9.228;2023-03-04T09:41:12;1.60;;;1.60;;
2896;SDS011;1458;49.728;9.228;2023-03-04T09:43:45;1.70;;;1.70;;
2896;SDS011;1458;49.728;9.228;2023-03-04T09:46:15;1.70;;;1.70;;
2896;SDS011;1458;49.728;9.228;2023-03-04T09:48:50;1.80;;;1.80;;
2896;SDS011;1458;49.728;9.228;2023-03-04T09:51:21;2.10;;;2.10;;
2896;SDS011;1458;49.728;9.228;2023-03-04T09:54:06;2.10;;;2.10;;
2896;SDS011;1458;49.728;9.228;2023-03-04T09:56:36;2.30;;;2.30;;
2896;SDS011;1458;49.728;9.228;2023-03-04T09:59:08;2.20;;;2.20;;
2896;SDS011;1458;49.728;9.228;2023-03-04T10:01:44;2.60;;;2.60;;
2896;SDS011;1458;49.728;9.228;2023-03-04T10:04:17;2.33;;;2.33;;
2896;SDS011;1458;49.728;9.228;2023-03-04T10:06:56;2.50;;;2.50;;
2896;SDS011;1458;49.728;9.228;2023-03-04T10:09:25;2.50;;;2.50;;
2896;SDS011;1458;49.728;9.228;2023-03-04T10:11:58;3.13;;;3.13;;
2896;SDS011;1458;49.728;9.228;2023-03-04T10:14:35;3.00;;;3.00;;
2896;SDS011;1458;49.728;9.228;2023-03-04T10:17:11;3.00;;;3.00;;
2896;SDS011;1458;49.728;9.228;2023-03-04T10:19:54;3.10;;;3.10;;
2896;SDS011;1458;49.728;9.228;2023-03-04T10:22:27;2.93;;;2.93;;
2896;SDS011;1458;49.728;9.228;2023-03-04T10:25:00;3.60;;;3.60;;
2896;SDS011;1458;49.728;9.228;2023-03-04T10:27:42;3.50;;;3.50;;
2896;SDS011;1458;49.728;9.228;2023-03-04T10:30:18;3.70;;;3.70;;
2896;SDS011;1458;49.728;9.228;2023-03-04T10:33:01;4.30;;;4.30;;
2896;SDS011;1458;49.728;9.228;2023-03-04T10:35:38;4.70;;;4.70;;
2896;SDS011;1458;49.728;9.228;2023-03-04T10:38:11;5.17;;;5.17;;
2896;SDS011;1458;49.728;9.228;2023-03-04T10:40:39;5.30;;;5.30;;
2896;SDS011;1458;49.728;9.228;2023-03-04T10:43:12;5.10;;;5.10;;
2896;SDS011;1458;49.728;9.228;2023-03-04T10:45:44;5.47;;;5.47;;
2896;SDS011;1458;49.728;9.228;2023-03-04T10:48:19;5.60;;;5.60;;
2896;SDS011;1458;49.728;9.228;2023-03-04T10:50:51;5.10;;;5.10;;
2896;SDS011;1458;49.728;9.228;2023-03-04T10:53:24;4.67;;;4.67;;
2896;SDS011;1458;49.728;9.228;2023-03-04T10:55:57;5.40;;;5.40;;
2896;SDS011;1458;49.728;9.228;2023-03-04T10:58:27;5.63;;;5.63;;
2896;SDS011;1458;49.728;9.228;2023-03-04T11:00:58;5.90;;;5.90;;
2896;SDS011;1458;49.728;9.228;2023-03-04T11:06:23;6.20;;;6.20;;
2896;SDS011;1458;49.728;9.228;2023-03-04T11:08:53;6.50;;;6.50;;
2896;SDS011;1458;49.728;9.228;2023-03-04T11:11:24;6.60;;;6.60;;
2896;SDS011;1458;49.728;9.228;2023-03-04T11:13:59;6.40;;;6.40;;
2896;SDS011;1458;49.728;9.228;2023-03-04T11:16:30;6.30;;;6.30;;
2896;SDS011;1458;49.728;9.228;2023-03-04T11:19:00;6.93;;;6.83;;
2896;SDS011;1458;49.728;9.228;2023-03-04T11:21:35;6.60;;;6.60;;
2896;SDS011;1458;49.728;9.228;2023-03-04T11:24:08;6.50;;;6.50;;
2896;SDS011;1458;49.728;9.228;2023-03-04T11:26:40;7.00;;;6.90;;
2896;SDS011;1458;49.728;9.228;2023-03-04T11:29:12;6.30;;;6.30;;
2896;SDS011;1458;49.728;9.228;2023-03-04T11:31:45;6.30;;;6.30;;
2896;SDS011;1458;49.728;9.228;2023-03-04T11:34:19;6.23;;;6.23;;
2896;SDS011;1458;49.728;9.228;2023-03-04T11:36:58;6.20;;;6.20;;
2896;SDS011;1458;49.728;9.228;2023-03-04T11:39:31;6.10;;;6.10;;
2896;SDS011;1458;49.728;9.228;2023-03-04T11:42:04;6.20;;;6.20;;
2896;SDS011;1458;49.728;9.228;2023-03-04T11:44:41;6.20;;;6.20;;
2896;SDS011;1458;49.728;9.228;2023-03-04T11:56:13;6.90;;;6.80;;
2896;SDS011;1458;49.728;9.228;2023-03-04T12:02:09;6.40;;;6.40;;
2896;SDS011;1458;49.728;9.228;2023-03-04T12:04:55;6.50;;;6.50;;
2896;SDS011;1458;49.728;9.228;2023-03-04T12:10:57;6.90;;;6.80;;
2896;SDS011;1458;49.728;9.228;2023-03-04T12:13:32;7.00;;;6.90;;
2896;SDS011;1458;49.728;9.228;2023-03-04T12:16:57;7.00;;;6.90;;
2896;SDS011;1458;49.728;9.228;2023-03-04T12:20:03;6.87;;;6.77;;
2896;SDS011;1458;49.728;9.228;2023-03-04T12:22:43;6.80;;;6.70;;
2896;SDS011;1458;49.728;9.228;2023-03-04T12:28:11;6.40;;;6.40;;
2896;SDS011;1458;49.728;9.228;2023-03-04T12:31:04;6.30;;;6.30;;
2896;SDS011;1458;49.728;9.228;2023-03-04T12:34:01;6.80;;;6.70;;
2896;SDS011;1458;49.728;9.228;2023-03-04T12:37:05;7.00;;;6.90;;
2896;SDS011;1458;49.728;9.228;2023-03-04T12:39:56;7.20;;;7.10;;
2896;SDS011;1458;49.728;9.228;2023-03-04T12:42:37;7.10;;;7.00;;
2896;SDS011;1458;49.728;9.228;2023-03-04T12:45:19;7.10;;;7.00;;
2896;SDS011;1458;49.728;9.228;2023-03-04T12:47:53;7.00;;;6.90;;
2896;SDS011;1458;49.728;9.228;2023-03-04T12:50:30;6.80;;;6.70;;
2896;SDS011;1458;49.728;9.228;2023-03-04T12:53:09;7.00;;;6.90;;
2896;SDS011;1458;49.728;9.228;2023-03-04T12:55:47;6.60;;;6.60;;
2896;SDS011;1458;49.728;9.228;2023-03-04T12:58:17;6.50;;;6.50;;
2896;SDS011;1458;49.728;9.228;2023-03-04T13:00:50;6.77;;;6.70;;
2896;SDS011;1458;49.728;9.228;2023-03-04T13:03:27;6.53;;;6.53;;
2896;SDS011;1458;49.728;9.228;2023-03-04T13:06:05;6.20;;;6.20;;
2896;SDS011;1458;49.728;9.228;2023-03-04T13:08:57;6.30;;;6.30;;
2896;SDS011;1458;49.728;9.228;2023-03-04T13:11:31;6.17;;;6.17;;
2896;SDS011;1458;49.728;9.228;2023-03-04T13:14:25;6.00;;;6.00;;
2896;SDS011;1458;49.728;9.228;2023-03-04T13:16:57;6.20;;;6.20;;
2896;SDS011;1458;49.728;9.228;2023-03-04T13:25:27;6.20;;;6.20;;
2896;SDS011;1458;49.728;9.228;2023-03-04T13:28:05;5.80;;;5.80;;
2896;SDS011;1458;49.728;9.228;2023-03-04T13:33:50;6.73;;;6.63;;
2896;SDS011;1458;49.728;9.228;2023-03-04T13:36:32;6.27;;;6.27;;
2896;SDS011;1458;49.728;9.228;2023-03-04T13:39:28;6.20;;;6.20;;
2896;SDS011;1458;49.728;9.228;2023-03-04T13:42:01;6.20;;;6.20;;
2896;SDS011;1458;49.728;9.228;2023-03-04T13:44:35;6.10;;;6.10;;
2896;SDS011;1458;49.728;9.228;2023-03-04T13:47:27;6.30;;;6.30;;
2896;SDS011;1458;49.728;9.228;2023-03-04T13:53:28;6.40;;;6.40;;
2896;SDS011;1458;49.728;9.228;2023-03-04T13:59:01;6.40;;;6.40;;
2896;SDS011;1458;49.728;9.228;2023-03-04T14:04:41;6.83;;;6.73;;
2896;SDS011;1458;49.728;9.228;2023-03-04T14:07:19;6.50;;;6.50;;
2896;SDS011;1458;49.728;9.228;2023-03-04T14:09:55;6.80;;;6.70;;
2896;SDS011;1458;49.728;9.228;2023-03-04T14:12:26;6.53;;;6.53;;
2896;SDS011;1458;49.728;9.228;2023-03-04T14:14:57;7.10;;;7.00;;
2896;SDS011;1458;49.728;9.228;2023-03-04T14:17:27;6.67;;;6.60;;
2896;SDS011;1458;49.728;9.228;2023-03-04T14:19:57;6.80;;;6.70;;
2896;SDS011;1458;49.728;9.228;2023-03-04T14:22:29;6.50;;;6.50;;
2896;SDS011;1458;49.728;9.228;2023-03-04T14:24:59;6.90;;;6.80;;
2896;SDS011;1458;49.728;9.228;2023-03-04T14:27:29;6.90;;;6.80;;
2896;SDS011;1458;49.728;9.228;2023-03-04T14:30:00;7.10;;;7.00;;
2896;SDS011;1458;49.728;9.228;2023-03-04T14:32:31;6.90;;;6.80;;
2896;SDS011;1458;49.728;9.228;2023-03-04T14:35:01;7.00;;;6.90;;
2896;SDS011;1458;49.728;9.228;2023-03-04T14:37:34;7.13;;;7.03;;
2896;SDS011;1458;49.728;9.228;2023-03-04T14:40:10;7.10;;;7.00;;
2896;SDS011;1458;49.728;9.228;2023-03-04T14:42:47;7.10;;;7.00;;
2896;SDS011;1458;49.728;9.228;2023-03-04T14:45:21;7.30;;;7.20;;
2896;SDS011;1458;49.728;9.228;2023-03-04T14:47:50;7.20;;;7.10;;
2896;SDS011;1458;49.728;9.228;2023-03-04T14:50:21;7.30;;;7.20;;
2896;SDS011;1458;49.728;9.228;2023-03-04T14:53:00;7.20;;;7.10;;
2896;SDS011;1458;49.728;9.228;2023-03-04T14:55:39;7.20;;;7.10;;
2896;SDS011;1458;49.728;9.228;2023-03-04T14:58:23;7.30;;;7.20;;
2896;SDS011;1458;49.728;9.228;2023-03-04T15:01:03;7.40;;;7.30;;
2896;SDS011;1458;49.728;9.228;2023-03-04T15:03:34;7.30;;;7.20;;
2896;SDS011;1458;49.728;9.228;2023-03-04T15:06:06;6.90;;;6.80;;
2896;SDS011;1458;49.728;9.228;2023-03-04T15:08:43;6.60;;;6.60;;
2896;SDS011;1458;49.728;9.228;2023-03-04T15:11:18;6.60;;;6.60;;
2896;SDS011;1458;49.728;9.228;2023-03-04T15:13:49;6.90;;;6.80;;
2896;SDS011;1458;49.728;9.228;2023-03-04T15:16:19;6.90;;;6.80;;
2896;SDS011;1458;49.728;9.228;2023-03-04T15:18:53;7.00;;;6.90;;
2896;SDS011;1458;49.728;9.228;2023-03-04T15:21:36;6.30;;;6.30;;
2896;SDS011;1458;49.728;9.228;2023-03-04T15:24:07;6.10;;;6.10;;
2896;SDS011;1458;49.728;9.228;2023-03-04T15:26:38;6.20;;;6.20;;
2896;SDS011;1458;49.728;9.228;2023-03-04T15:29:12;6.30;;;6.30;;
2896;SDS011;1458;49.728;9.228;2023-03-04T15:31:41;6.20;;;6.20;;
2896;SDS011;1458;49.728;9.228;2023-03-04T15:34:11;6.70;;;6.60;;
2896;SDS011;1458;49.728;9.228;2023-03-04T15:36:39;6.40;;;6.40;;
2896;SDS011;1458;49.728;9.228;2023-03-04T15:39:09;6.77;;;6.67;;
2896;SDS011;1458;49.728;9.228;2023-03-04T15:41:40;6.40;;;6.40;;
2896;SDS011;1458;49.728;9.228;2023-03-04T15:44:08;6.50;;;6.50;;
2896;SDS011;1458;49.728;9.228;2023-03-04T15:46:36;6.10;;;6.10;;
2896;SDS011;1458;49.728;9.228;2023-03-04T15:49:04;6.60;;;6.50;;
2896;SDS011;1458;49.728;9.228;2023-03-04T15:51:32;6.00;;;6.00;;
2896;SDS011;1458;49.728;9.228;2023-03-04T15:53:59;6.30;;;6.30;;
2896;SDS011;1458;49.728;9.228;2023-03-04T15:56:29;6.23;;;6.23;;
2896;SDS011;1458;49.728;9.228;2023-03-04T15:58:58;5.97;;;5.97;;
2896;SDS011;1458;49.728;9.228;2023-03-04T16:01:29;6.00;;;6.00;;
2896;SDS011;1458;49.728;9.228;2023-03-04T16:03:57;6.00;;;6.00;;
2896;SDS011;1458;49.728;9.228;2023-03-04T16:06:24;6.00;;;6.00;;
2896;SDS011;1458;49.728;9.228;2023-03-04T16:08:55;6.17;;;6.17;;
2896;SDS011;1458;49.728;9.228;2023-03-04T16:11:24;5.80;;;5.80;;
2896;SDS011;1458;49.728;9.228;2023-03-04T16:13:55;5.70;;;5.70;;
2896;SDS011;1458;49.728;9.228;2023-03-04T16:16:24;5.60;;;5.60;;